sensor_id;sensor_type;location;lat;lon;timestamp;temperature;humidity
53645;DHT22;39547;45.554;12.068;2022-12-18T00:01:57;5.50;86.80
53645;DHT22;39547;45.554;12.068;2022-12-18T00:08:02;5.50;85.80
53645;DHT22;39547;45.554;12.068;2022-12-18T00:14:04;5.50;86.40
53645;DHT22;39547;45.554;12.068;2022-12-18T00:20:06;5.50;85.60
53645;DHT22;39547;45.554;12.068;2022-12-18T00:26:18;5.50;87.10
53645;DHT22;39547;45.554;12.068;2022-12-18T00:32:21;5.40;85.30
53645;DHT22;39547;45.554;12.068;2022-12-18T00:38:22;5.40;86.50
53645;DHT22;39547;45.554;12.068;2022-12-18T00:44:25;5.40;87.30
53645;DHT22;39547;45.554;12.068;2022-12-18T00:50:26;5.30;87.70
53645;DHT22;39547;45.554;12.068;2022-12-18T00:56:28;5.20;86.00
53645;DHT22;39547;45.554;12.068;2022-12-18T01:02:30;5.20;87.60
53645;DHT22;39547;45.554;12.068;2022-12-18T01:08:32;5.20;87.10
53645;DHT22;39547;45.554;12.068;2022-12-18T01:14:34;5.10;87.80
53645;DHT22;39547;45.554;12.068;2022-12-18T01:20:37;5.10;87.70
53645;DHT22;39547;45.554;12.068;2022-12-18T01:26:41;4.90;86.50
53645;DHT22;39547;45.554;12.068;2022-12-18T01:32:42;4.80;86.30
53645;DHT22;39547;45.554;12.068;2022-12-18T01:38:44;4.70;86.40
53645;DHT22;39547;45.554;12.068;2022-12-18T01:51:18;4.70;87.00
53645;DHT22;39547;45.554;12.068;2022-12-18T01:57:20;4.70;87.70
53645;DHT22;39547;45.554;12.068;2022-12-18T02:03:21;4.70;87.40
53645;DHT22;39547;45.554;12.068;2022-12-18T02:09:33;4.70;87.70
53645;DHT22;39547;45.554;12.068;2022-12-18T02:15:46;4.70;86.00
53645;DHT22;39547;45.554;12.068;2022-12-18T02:28:08;4.60;87.70
53645;DHT22;39547;45.554;12.068;2022-12-18T02:34:13;4.60;87.30
53645;DHT22;39547;45.554;12.068;2022-12-18T02:40:18;4.60;86.50
53645;DHT22;39547;45.554;12.068;2022-12-18T02:46:31;4.60;88.00
53645;DHT22;39547;45.554;12.068;2022-12-18T02:53:11;4.50;87.00
53645;DHT22;39547;45.554;12.068;2022-12-18T02:59:21;4.50;87.90
53645;DHT22;39547;45.554;12.068;2022-12-18T03:05:43;4.40;86.80
53645;DHT22;39547;45.554;12.068;2022-12-18T03:11:52;4.30;88.20
53645;DHT22;39547;45.554;12.068;2022-12-18T03:18:26;4.30;87.70
53645;DHT22;39547;45.554;12.068;2022-12-18T03:24:31;4.30;88.20
53645;DHT22;39547;45.554;12.068;2022-12-18T03:30:37;4.20;88.50
53645;DHT22;39547;45.554;12.068;2022-12-18T03:36:40;4.20;88.70
53645;DHT22;39547;45.554;12.068;2022-12-18T03:42:49;4.20;88.50
53645;DHT22;39547;45.554;12.068;2022-12-18T03:48:58;4.20;88.10
53645;DHT22;39547;45.554;12.068;2022-12-18T03:55:01;4.20;88.80
53645;DHT22;39547;45.554;12.068;2022-12-18T04:01:08;4.20;88.90
53645;DHT22;39547;45.554;12.068;2022-12-18T04:07:13;4.10;88.90
53645;DHT22;39547;45.554;12.068;2022-12-18T04:13:29;4.10;89.10
53645;DHT22;39547;45.554;12.068;2022-12-18T04:19:33;4.10;88.90
53645;DHT22;39547;45.554;12.068;2022-12-18T04:25:37;4.10;88.80
53645;DHT22;39547;45.554;12.068;2022-12-18T04:31:42;4.00;89.10
53645;DHT22;39547;45.554;12.068;2022-12-18T04:37:44;4.00;88.90
53645;DHT22;39547;45.554;12.068;2022-12-18T04:43:46;3.90;89.20
53645;DHT22;39547;45.554;12.068;2022-12-18T04:49:48;3.90;88.30
53645;DHT22;39547;45.554;12.068;2022-12-18T04:55:50;3.90;88.80
53645;DHT22;39547;45.554;12.068;2022-12-18T05:01:52;3.80;89.30
53645;DHT22;39547;45.554;12.068;2022-12-18T05:07:56;3.80;87.90
53645;DHT22;39547;45.554;12.068;2022-12-18T05:13:58;3.80;88.70
53645;DHT22;39547;45.554;12.068;2022-12-18T05:19:59;3.70;89.10
53645;DHT22;39547;45.554;12.068;2022-12-18T05:26:03;3.70;89.30
53645;DHT22;39547;45.554;12.068;2022-12-18T05:32:05;3.70;89.60
53645;DHT22;39547;45.554;12.068;2022-12-18T05:38:06;3.70;89.70
53645;DHT22;39547;45.554;12.068;2022-12-18T05:44:08;3.70;89.60
53645;DHT22;39547;45.554;12.068;2022-12-18T05:50:10;3.70;89.70
53645;DHT22;39547;45.554;12.068;2022-12-18T05:56:19;3.60;89.60
53645;DHT22;39547;45.554;12.068;2022-12-18T06:02:21;3.60;89.70
53645;DHT22;39547;45.554;12.068;2022-12-18T06:08:24;3.50;88.90
53645;DHT22;39547;45.554;12.068;2022-12-18T06:14:26;3.50;88.60
53645;DHT22;39547;45.554;12.068;2022-12-18T06:20:27;3.50;87.40
53645;DHT22;39547;45.554;12.068;2022-12-18T06:26:29;3.50;88.30
53645;DHT22;39547;45.554;12.068;2022-12-18T06:32:31;3.50;87.80
53645;DHT22;39547;45.554;12.068;2022-12-18T06:38:36;3.50;87.90
53645;DHT22;39547;45.554;12.068;2022-12-18T06:44:38;3.50;88.10
53645;DHT22;39547;45.554;12.068;2022-12-18T06:50:42;3.40;88.90
53645;DHT22;39547;45.554;12.068;2022-12-18T06:56:45;3.40;89.20
53645;DHT22;39547;45.554;12.068;2022-12-18T07:02:47;3.40;88.70
53645;DHT22;39547;45.554;12.068;2022-12-18T07:08:50;3.40;89.50
53645;DHT22;39547;45.554;12.068;2022-12-18T07:14:52;3.40;89.20
53645;DHT22;39547;45.554;12.068;2022-12-18T07:20:54;3.50;89.60
53645;DHT22;39547;45.554;12.068;2022-12-18T07:26:55;3.50;88.50
53645;DHT22;39547;45.554;12.068;2022-12-18T07:32:58;3.60;89.80
53645;DHT22;39547;45.554;12.068;2022-12-18T07:39:00;3.70;89.60
53645;DHT22;39547;45.554;12.068;2022-12-18T07:45:02;3.80;89.50
53645;DHT22;39547;45.554;12.068;2022-12-18T07:51:06;3.90;87.80
53645;DHT22;39547;45.554;12.068;2022-12-18T07:57:08;4.00;89.50
53645;DHT22;39547;45.554;12.068;2022-12-18T08:03:10;4.10;89.70
53645;DHT22;39547;45.554;12.068;2022-12-18T08:09:11;4.20;89.30
53645;DHT22;39547;45.554;12.068;2022-12-18T08:15:14;4.20;87.90
53645;DHT22;39547;45.554;12.068;2022-12-18T08:21:17;4.30;88.50
53645;DHT22;39547;45.554;12.068;2022-12-18T08:27:19;4.50;88.80
53645;DHT22;39547;45.554;12.068;2022-12-18T08:33:21;4.60;88.10
53645;DHT22;39547;45.554;12.068;2022-12-18T08:39:23;4.70;88.10
53645;DHT22;39547;45.554;12.068;2022-12-18T08:45:25;4.90;88.80
53645;DHT22;39547;45.554;12.068;2022-12-18T08:51:27;5.00;88.10
53645;DHT22;39547;45.554;12.068;2022-12-18T08:57:29;5.20;87.00
53645;DHT22;39547;45.554;12.068;2022-12-18T09:03:31;5.20;87.60
53645;DHT22;39547;45.554;12.068;2022-12-18T09:09:34;5.40;87.50
53645;DHT22;39547;45.554;12.068;2022-12-18T09:15:41;5.50;87.40
53645;DHT22;39547;45.554;12.068;2022-12-18T09:21:43;5.60;87.40
53645;DHT22;39547;45.554;12.068;2022-12-18T09:27:47;5.70;87.30
53645;DHT22;39547;45.554;12.068;2022-12-18T09:33:48;5.80;87.20
53645;DHT22;39547;45.554;12.068;2022-12-18T09:39:50;5.90;86.20
53645;DHT22;39547;45.554;12.068;2022-12-18T09:45:55;6.00;86.30
53645;DHT22;39547;45.554;12.068;2022-12-18T09:52:04;6.10;87.00
53645;DHT22;39547;45.554;12.068;2022-12-18T10:04:12;6.30;86.80
53645;DHT22;39547;45.554;12.068;2022-12-18T10:10:39;6.40;84.10
53645;DHT22;39547;45.554;12.068;2022-12-18T10:17:00;6.40;82.60
53645;DHT22;39547;45.554;12.068;2022-12-18T10:29:16;6.50;83.60
53645;DHT22;39547;45.554;12.068;2022-12-18T10:35:22;6.70;85.70
53645;DHT22;39547;45.554;12.068;2022-12-18T10:41:26;6.80;85.90
53645;DHT22;39547;45.554;12.068;2022-12-18T10:47:28;6.90;86.20
53645;DHT22;39547;45.554;12.068;2022-12-18T10:53:31;7.00;86.10
53645;DHT22;39547;45.554;12.068;2022-12-18T10:59:51;7.10;86.20
53645;DHT22;39547;45.554;12.068;2022-12-18T11:06:03;7.20;84.00
53645;DHT22;39547;45.554;12.068;2022-12-18T11:12:18;7.30;85.40
53645;DHT22;39547;45.554;12.068;2022-12-18T11:18:33;7.40;84.90
53645;DHT22;39547;45.554;12.068;2022-12-18T11:24:39;7.60;85.40
53645;DHT22;39547;45.554;12.068;2022-12-18T11:30:42;7.70;85.20
53645;DHT22;39547;45.554;12.068;2022-12-18T11:36:45;7.70;85.00
53645;DHT22;39547;45.554;12.068;2022-12-18T11:42:54;7.70;85.50
53645;DHT22;39547;45.554;12.068;2022-12-18T11:49:21;7.80;85.30
53645;DHT22;39547;45.554;12.068;2022-12-18T12:08:45;8.10;83.90
53645;DHT22;39547;45.554;12.068;2022-12-18T12:40:41;8.40;83.70
53645;DHT22;39547;45.554;12.068;2022-12-18T12:46:44;8.50;81.40
53645;DHT22;39547;45.554;12.068;2022-12-18T12:52:54;8.50;83.40
53645;DHT22;39547;45.554;12.068;2022-12-18T13:24:27;8.50;83.60
53645;DHT22;39547;45.554;12.068;2022-12-18T13:36:34;8.30;84.00
53645;DHT22;39547;45.554;12.068;2022-12-18T13:42:38;8.20;83.20
53645;DHT22;39547;45.554;12.068;2022-12-18T13:55:07;8.10;84.00
53645;DHT22;39547;45.554;12.068;2022-12-18T14:01:24;8.00;83.10
53645;DHT22;39547;45.554;12.068;2022-12-18T14:07:28;7.90;83.80
53645;DHT22;39547;45.554;12.068;2022-12-18T14:13:36;7.80;84.20
53645;DHT22;39547;45.554;12.068;2022-12-18T14:19:42;7.80;85.00
53645;DHT22;39547;45.554;12.068;2022-12-18T14:25:46;7.80;85.10
53645;DHT22;39547;45.554;12.068;2022-12-18T14:44:18;7.60;86.20
53645;DHT22;39547;45.554;12.068;2022-12-18T14:50:19;7.50;86.40
53645;DHT22;39547;45.554;12.068;2022-12-18T14:56:30;7.40;86.60
53645;DHT22;39547;45.554;12.068;2022-12-18T15:02:35;7.20;86.80
53645;DHT22;39547;45.554;12.068;2022-12-18T15:08:37;7.20;87.00
53645;DHT22;39547;45.554;12.068;2022-12-18T15:14:40;7.00;87.20
53645;DHT22;39547;45.554;12.068;2022-12-18T15:20:46;6.80;87.40
53645;DHT22;39547;45.554;12.068;2022-12-18T15:26:50;6.70;87.60
53645;DHT22;39547;45.554;12.068;2022-12-18T15:33:25;6.60;87.70
53645;DHT22;39547;45.554;12.068;2022-12-18T15:39:27;6.40;87.90
53645;DHT22;39547;45.554;12.068;2022-12-18T15:45:30;6.30;88.00
53645;DHT22;39547;45.554;12.068;2022-12-18T15:51:38;6.20;88.10
53645;DHT22;39547;45.554;12.068;2022-12-18T15:57:40;6.10;88.20
53645;DHT22;39547;45.554;12.068;2022-12-18T16:03:41;5.90;88.30
53645;DHT22;39547;45.554;12.068;2022-12-18T16:09:43;5.90;88.40
53645;DHT22;39547;45.554;12.068;2022-12-18T16:15:45;5.70;88.50
53645;DHT22;39547;45.554;12.068;2022-12-18T16:21:48;5.60;88.60
53645;DHT22;39547;45.554;12.068;2022-12-18T16:27:51;5.50;88.60
53645;DHT22;39547;45.554;12.068;2022-12-18T16:34:13;5.50;88.70
53645;DHT22;39547;45.554;12.068;2022-12-18T16:40:16;5.40;88.70
53645;DHT22;39547;45.554;12.068;2022-12-18T16:46:18;5.20;88.80
53645;DHT22;39547;45.554;12.068;2022-12-18T16:52:20;5.20;88.90
53645;DHT22;39547;45.554;12.068;2022-12-18T16:58:22;5.20;88.90
53645;DHT22;39547;45.554;12.068;2022-12-18T17:04:24;5.10;88.90
53645;DHT22;39547;45.554;12.068;2022-12-18T17:10:26;5.00;89.00
53645;DHT22;39547;45.554;12.068;2022-12-18T17:16:27;4.90;88.80
53645;DHT22;39547;45.554;12.068;2022-12-18T17:22:29;4.80;89.00
53645;DHT22;39547;45.554;12.068;2022-12-18T17:28:31;4.80;89.00
53645;DHT22;39547;45.554;12.068;2022-12-18T17:34:33;4.70;89.10
53645;DHT22;39547;45.554;12.068;2022-12-18T17:40:37;4.70;89.10
53645;DHT22;39547;45.554;12.068;2022-12-18T17:46:41;4.70;89.20
53645;DHT22;39547;45.554;12.068;2022-12-18T17:52:42;4.60;89.20
53645;DHT22;39547;45.554;12.068;2022-12-18T17:58:44;4.60;89.30
53645;DHT22;39547;45.554;12.068;2022-12-18T18:04:47;4.50;89.30
53645;DHT22;39547;45.554;12.068;2022-12-18T18:10:48;4.50;89.30
53645;DHT22;39547;45.554;12.068;2022-12-18T18:16:51;4.40;89.30
53645;DHT22;39547;45.554;12.068;2022-12-18T18:22:55;4.30;89.30
53645;DHT22;39547;45.554;12.068;2022-12-18T18:28:58;4.30;89.40
53645;DHT22;39547;45.554;12.068;2022-12-18T18:35:00;4.20;89.40
53645;DHT22;39547;45.554;12.068;2022-12-18T18:41:03;4.20;89.40
53645;DHT22;39547;45.554;12.068;2022-12-18T18:47:05;4.20;89.40
53645;DHT22;39547;45.554;12.068;2022-12-18T18:53:07;4.10;89.40
53645;DHT22;39547;45.554;12.068;2022-12-18T18:59:08;4.00;89.40
53645;DHT22;39547;45.554;12.068;2022-12-18T19:05:10;4.00;89.40
53645;DHT22;39547;45.554;12.068;2022-12-18T19:11:12;3.90;89.40
53645;DHT22;39547;45.554;12.068;2022-12-18T19:17:33;3.90;89.20
53645;DHT22;39547;45.554;12.068;2022-12-18T19:23:36;3.70;89.20
53645;DHT22;39547;45.554;12.068;2022-12-18T19:29:39;3.70;89.30
53645;DHT22;39547;45.554;12.068;2022-12-18T19:35:40;3.70;89.40
53645;DHT22;39547;45.554;12.068;2022-12-18T19:41:43;3.70;89.40
53645;DHT22;39547;45.554;12.068;2022-12-18T19:47:45;3.60;89.30
53645;DHT22;39547;45.554;12.068;2022-12-18T19:53:47;3.50;89.20
53645;DHT22;39547;45.554;12.068;2022-12-18T19:59:49;3.50;89.40
53645;DHT22;39547;45.554;12.068;2022-12-18T20:05:51;3.40;89.20
53645;DHT22;39547;45.554;12.068;2022-12-18T20:11:53;3.40;89.20
53645;DHT22;39547;45.554;12.068;2022-12-18T20:17:55;3.40;89.30
53645;DHT22;39547;45.554;12.068;2022-12-18T20:23:57;3.30;89.30
53645;DHT22;39547;45.554;12.068;2022-12-18T20:30:00;3.20;89.40
53645;DHT22;39547;45.554;12.068;2022-12-18T20:36:06;3.20;89.50
53645;DHT22;39547;45.554;12.068;2022-12-18T20:42:08;3.20;89.50
53645;DHT22;39547;45.554;12.068;2022-12-18T20:48:10;3.20;89.50
53645;DHT22;39547;45.554;12.068;2022-12-18T20:54:12;3.10;89.40
53645;DHT22;39547;45.554;12.068;2022-12-18T21:00:14;3.10;89.60
53645;DHT22;39547;45.554;12.068;2022-12-18T21:06:18;3.10;89.70
53645;DHT22;39547;45.554;12.068;2022-12-18T21:12:20;3.10;89.70
53645;DHT22;39547;45.554;12.068;2022-12-18T21:18:41;3.20;89.70
53645;DHT22;39547;45.554;12.068;2022-12-18T21:24:43;3.10;89.60
53645;DHT22;39547;45.554;12.068;2022-12-18T21:30:45;3.10;89.60
53645;DHT22;39547;45.554;12.068;2022-12-18T21:36:47;3.00;89.50
53645;DHT22;39547;45.554;12.068;2022-12-18T21:42:49;2.90;89.60
53645;DHT22;39547;45.554;12.068;2022-12-18T21:49:12;2.90;89.60
53645;DHT22;39547;45.554;12.068;2022-12-18T21:55:21;2.80;89.70
53645;DHT22;39547;45.554;12.068;2022-12-18T22:01:23;2.80;89.80
53645;DHT22;39547;45.554;12.068;2022-12-18T22:07:24;2.80;89.80
53645;DHT22;39547;45.554;12.068;2022-12-18T22:13:26;2.70;89.70
53645;DHT22;39547;45.554;12.068;2022-12-18T22:19:28;2.70;89.60
53645;DHT22;39547;45.554;12.068;2022-12-18T22:25:30;2.60;89.40
53645;DHT22;39547;45.554;12.068;2022-12-18T22:31:32;2.60;89.50
53645;DHT22;39547;45.554;12.068;2022-12-18T22:37:34;2.60;89.50
53645;DHT22;39547;45.554;12.068;2022-12-18T22:43:36;2.50;89.00
53645;DHT22;39547;45.554;12.068;2022-12-18T22:49:38;2.50;89.30
53645;DHT22;39547;45.554;12.068;2022-12-18T22:55:40;2.50;89.60
53645;DHT22;39547;45.554;12.068;2022-12-18T23:01:41;2.50;89.70
53645;DHT22;39547;45.554;12.068;2022-12-18T23:07:43;2.50;89.70
53645;DHT22;39547;45.554;12.068;2022-12-18T23:13:45;2.40;89.70
53645;DHT22;39547;45.554;12.068;2022-12-18T23:19:47;2.40;89.50
53645;DHT22;39547;45.554;12.068;2022-12-18T23:25:49;2.30;88.70
53645;DHT22;39547;45.554;12.068;2022-12-18T23:31:50;2.20;88.80
53645;DHT22;39547;45.554;12.068;2022-12-18T23:37:52;2.20;89.10
53645;DHT22;39547;45.554;12.068;2022-12-18T23:43:55;2.20;89.40
53645;DHT22;39547;45.554;12.068;2022-12-18T23:49:57;2.20;88.80
53645;DHT22;39547;45.554;12.068;2022-12-18T23:55:59;2.20;89.30
